Time;durP1;ratioP1;P1;durP2;ratioP2;P2;SDS_P1;SDS_P2;PMS_P1;PMS_P2;Temp;Humidity;BMP_temperature;BMP_pressure;BME280_temperature;BME280_humidity;BME280_pressure;Samples;Min_cycle;Max_cycle;Signal;HPM_P1;HPM_P2
2022/07/01 00:00:46;;;;;;;8.20;5.30;;;;;;;21.66;72.11;100457.72;1639926;87;21508;-69
2022/07/01 00:03:16;;;;;;;7.95;5.58;;;;;;;21.67;72.11;100462.19;1631254;87;21055;-69
2022/07/01 00:05:46;;;;;;;6.90;5.28;;;;;;;21.68;72.05;100458.28;1628457;87;21042;-69
2022/07/01 00:08:15;;;;;;;7.83;5.80;;;;;;;21.72;72.12;100466.40;1617708;87;21078;-69
2022/07/01 00:10:45;;;;;;;8.23;5.53;;;;;;;21.69;72.13;100465.55;1617217;88;21106;-68
2022/07/01 00:13:15;;;;;;;8.33;5.80;;;;;;;21.65;72.21;100462.17;1616995;89;21503;-68
2022/07/01 00:15:44;;;;;;;11.05;6.10;;;;;;;21.59;72.39;100465.48;1616482;89;21157;-69
2022/07/01 00:18:14;;;;;;;8.60;5.42;;;;;;;21.57;72.56;100464.91;1616168;89;21106;-69
2022/07/01 00:20:43;;;;;;;6.40;5.62;;;;;;;21.56;72.61;100463.23;1616219;89;21535;-69
2022/07/01 00:23:13;;;;;;;8.70;6.10;;;;;;;21.55;72.58;100463.50;1616336;89;21111;-68
2022/07/01 00:25:44;;;;;;;8.43;5.70;;;;;;;21.53;72.59;100467.95;1616252;89;21098;-69
2022/07/01 00:28:14;;;;;;;8.80;6.17;;;;;;;21.48;72.90;100467.36;1617309;89;21074;-68
2022/07/01 00:30:44;;;;;;;10.65;6.25;;;;;;;21.44;73.15;100466.19;1617614;88;21111;-68
2022/07/01 00:33:13;;;;;;;8.68;5.62;;;;;;;21.43;73.37;100465.06;1617785;88;21114;-69
2022/07/01 00:35:44;;;;;;;6.80;5.33;;;;;;;21.46;73.20;100462.61;1617959;88;21532;-68
2022/07/01 00:38:14;;;;;;;8.00;5.45;;;;;;;21.44;73.18;100462.56;1617690;88;21514;-69
2022/07/01 00:40:43;;;;;;;8.15;5.85;;;;;;;21.42;73.14;100460.59;1617664;88;21134;-67
2022/07/01 00:43:12;;;;;;;6.92;5.60;;;;;;;21.38;73.26;100459.45;1617741;88;21237;-68
2022/07/01 00:45:48;;;;;;;9.23;5.90;;;;;;;21.34;73.40;100456.36;1617732;88;21160;-68
2022/07/01 00:48:19;;;;;;;7.28;5.47;;;;;;;21.33;73.47;100460.80;1617696;89;21106;-68
2022/07/01 00:50:49;;;;;;;8.10;5.45;;;;;;;21.35;73.46;100458.59;1616430;89;21054;-68
2022/07/01 00:53:18;;;;;;;8.10;5.40;;;;;;;21.35;73.42;100464.16;1616303;89;21087;-69
2022/07/01 00:55:47;;;;;;;7.60;5.12;;;;;;;21.32;73.40;100464.70;1616237;89;21134;-69
2022/07/01 00:58:18;;;;;;;5.92;5.10;;;;;;;21.29;73.46;100465.23;1616231;89;21082;-67
2022/07/01 01:00:47;;;;;;;6.78;4.83;;;;;;;21.30;73.44;100464.97;1616275;89;21092;-68
2022/07/01 01:03:18;;;;;;;6.40;4.83;;;;;;;21.31;73.33;100458.84;1616354;89;21074;-67
2022/07/01 01:05:49;;;;;;;9.08;5.28;;;;;;;21.30;73.19;100462.18;1616530;89;21096;-69
2022/07/01 01:08:18;;;;;;;6.62;4.75;;;;;;;21.31;73.14;100457.45;1616412;89;21057;-68
2022/07/01 01:10:48;;;;;;;6.65;4.80;;;;;;;21.29;73.01;100459.66;1602442;89;21133;-70
2022/07/01 01:13:18;;;;;;;6.55;4.62;;;;;;;21.25;73.17;100459.91;1603901;89;21045;-68
2022/07/01 01:15:48;;;;;;;6.58;4.78;;;;;;;21.20;73.39;100463.46;1629856;88;21043;-69
2022/07/01 01:18:20;;;;;;;6.33;4.75;;;;;;;21.16;73.54;100457.58;1629795;88;21059;-69
2022/07/01 01:20:52;;;;;;;6.08;4.72;;;;;;;21.16;73.57;100461.76;1616236;89;21055;-68
2022/07/01 01:23:22;;;;;;;7.75;4.70;;;;;;;21.15;73.51;100462.87;1604051;89;21511;-69
2022/07/01 01:25:52;;;;;;;6.72;4.58;;;;;;;21.13;73.53;100453.94;1629294;88;21599;-69
2022/07/01 01:28:21;;;;;;;7.97;4.80;;;;;;;21.12;73.56;100459.77;1616451;89;21058;-68
2022/07/01 01:30:52;;;;;;;8.78;4.85;;;;;;;21.10;73.65;100455.02;1603891;89;21053;-70
2022/07/01 01:33:22;;;;;;;6.58;4.72;;;;;;;21.09;73.75;100458.36;1631176;88;21077;-69
2022/07/01 01:35:51;;;;;;;8.00;5.08;;;;;;;21.07;73.79;100460.57;1594395;89;21090;-67
2022/07/01 01:38:21;;;;;;;8.28;5.30;;;;;;;21.07;73.85;100461.13;1617456;89;21121;-69
2022/07/01 01:40:51;;;;;;;6.40;4.47;;;;;;;21.05;73.79;100466.96;1616268;89;21097;-70
2022/07/01 01:43:20;;;;;;;12.80;5.20;;;;;;;20.99;73.97;100462.45;1616529;89;21095;-69
2022/07/01 01:45:50;;;;;;;7.42;5.12;;;;;;;20.94;74.33;100469.37;1617641;88;21046;-68
2022/07/01 01:48:19;;;;;;;6.22;4.55;;;;;;;20.90;74.67;100473.79;1618224;88;21088;-69
2022/07/01 01:50:49;;;;;;;9.75;5.30;;;;;;;20.87;74.96;100477.09;1618068;89;21042;-69
2022/07/01 01:53:18;;;;;;;6.62;5.15;;;;;;;20.83;75.32;100478.18;1618092;88;21062;-68
2022/07/01 01:55:48;;;;;;;6.22;4.75;;;;;;;20.84;75.49;100472.06;1618316;88;21071;-68
2022/07/01 01:58:17;;;;;;;11.97;5.70;;;;;;;20.87;75.37;100482.67;1616966;89;21050;-69
2022/07/01 02:00:47;;;;;;;6.80;5.12;;;;;;;20.88;75.11;100475.45;1616174;89;21058;-68
2022/07/01 02:03:18;;;;;;;5.03;4.58;;;;;;;20.89;75.01;100483.25;1616446;89;21077;-68
2022/07/01 02:05:48;;;;;;;7.40;5.17;;;;;;;20.86;75.00;100483.77;1616269;89;21160;-67
2022/07/01 02:08:17;;;;;;;6.22;5.00;;;;;;;20.83;75.11;100484.30;1618267;88;21117;-69
2022/07/01 02:10:46;;;;;;;7.17;5.47;;;;;;;20.82;75.19;100485.41;1620806;88;21566;-69
2022/07/01 02:13:17;;;;;;;8.98;5.28;;;;;;;20.80;75.17;100479.23;1620681;88;21495;-69
2022/07/01 02:15:48;;;;;;;6.85;5.75;;;;;;;20.79;75.13;100477.55;1621102;87;21105;-69
2022/07/01 02:18:19;;;;;;;8.00;5.62;;;;;;;20.79;75.16;100477.55;1640168;87;21098;-69
2022/07/01 02:20:50;;;;;;;10.48;5.78;;;;;;;20.78;75.28;100480.05;1639914;87;21094;-68
2022/07/01 02:23:19;;;;;;;9.55;5.35;;;;;;;20.77;75.43;100478.36;1632023;86;21498;-69
2022/07/01 02:25:48;;;;;;;9.68;5.30;;;;;;;20.78;75.48;100475.31;1620737;88;21098;-68
2022/07/01 02:28:18;;;;;;;6.65;5.50;;;;;;;20.79;75.46;100476.16;1620815;88;21026;-68
2022/07/01 02:30:48;;;;;;;7.20;5.12;;;;;;;20.82;75.66;100479.84;1620843;88;21058;-69
2022/07/01 02:33:18;;;;;;;6.30;5.30;;;;;;;20.82;75.72;100472.32;1621002;88;21058;-69
2022/07/01 02:35:50;;;;;;;7.65;4.83;;;;;;;20.84;75.65;100477.63;1627290;87;21079;-69
2022/07/01 02:38:19;;;;;;;7.42;5.47;;;;;;;20.82;75.64;100472.88;1626827;87;21125;-68
2022/07/01 02:40:48;;;;;;;9.50;5.58;;;;;;;20.79;75.63;100471.97;1642830;87;21075;-68
2022/07/01 02:43:17;;;;;;;7.53;5.40;;;;;;;20.76;75.80;100481.70;1616973;88;21051;-69
2022/07/01 02:45:47;;;;;;;7.20;5.87;;;;;;;20.74;75.98;100476.94;1627215;88;21090;-69
2022/07/01 02:48:17;;;;;;;6.87;5.53;;;;;;;20.75;76.12;100486.14;1631099;88;21121;-69
2022/07/01 02:50:47;;;;;;;7.65;5.55;;;;;;;20.77;76.24;100486.16;1644759;87;21053;-68
2022/07/01 02:53:17;;;;;;;9.30;5.58;;;;;;;20.81;76.17;100491.53;1644872;87;21057;-69
2022/07/01 02:55:47;;;;;;;9.08;6.22;;;;;;;20.82;76.27;100490.98;1614221;89;21053;-70
2022/07/01 02:58:18;;;;;;;9.28;6.03;;;;;;;20.84;76.44;100498.52;1625799;87;21034;-69
2022/07/01 03:00:50;;;;;;;9.73;5.70;;;;;;;20.89;76.31;100500.80;1639058;87;21062;-67
2022/07/01 03:03:20;;;;;;;7.22;5.25;;;;;;;20.98;76.16;100502.56;1639047;87;21137;-69
2022/07/01 03:05:49;;;;;;;8.03;5.30;;;;;;;21.07;75.88;100500.12;1639299;87;21062;-69
2022/07/01 03:08:19;;;;;;;8.53;5.62;;;;;;;21.11;75.56;100495.16;1639121;87;21078;-69
2022/07/01 03:10:49;;;;;;;6.42;5.10;;;;;;;21.17;75.47;100496.04;1640726;87;21479;-68
2022/07/01 03:13:21;;;;;;;7.65;5.37;;;;;;;21.20;75.72;100501.92;1641785;87;21079;-67
2022/07/01 03:15:51;;;;;;;7.50;5.30;;;;;;;21.26;75.70;100495.03;1640609;86;21075;-69
2022/07/01 03:18:21;;;;;;;7.53;5.47;;;;;;;21.34;75.44;100502.34;1640223;87;21047;-69
2022/07/01 03:20:51;;;;;;;8.70;5.67;;;;;;;21.40;75.25;100503.23;1640471;87;21027;-69
2022/07/01 03:23:20;;;;;;;9.93;6.17;;;;;;;21.44;75.48;100498.80;1640414;87;21015;-68
2022/07/01 03:25:49;;;;;;;10.65;6.25;;;;;;;21.49;75.41;100496.92;1640420;87;21102;-68
2022/07/01 03:28:21;;;;;;;10.48;5.78;;;;;;;21.55;75.31;100499.19;1640487;87;21134;-69
2022/07/01 03:30:50;;;;;;;8.15;5.80;;;;;;;21.62;75.06;100499.80;1640382;87;21070;-69
2022/07/01 03:33:19;;;;;;;8.03;5.97;;;;;;;21.68;74.93;100490.36;1639376;87;21483;-68
2022/07/01 03:35:50;;;;;;;10.38;6.05;;;;;;;21.76;75.06;100493.20;1639701;87;21058;-68
2022/07/01 03:38:20;;;;;;;11.90;6.00;;;;;;;21.80;74.97;100490.16;1639908;87;21007;-68
2022/07/01 03:40:50;;;;;;;9.43;5.97;;;;;;;21.83;74.83;100494.64;1643212;87;21896;-68
2022/07/01 03:43:19;;;;;;;9.75;6.28;;;;;;;21.92;74.55;100492.17;1641919;87;21035;-67
2022/07/01 03:45:51;;;;;;;9.40;6.42;;;;;;;21.99;74.29;100489.14;1639036;87;21507;-69
2022/07/01 03:48:21;;;;;;;7.45;5.95;;;;;;;22.06;73.89;100492.56;1639005;87;21058;-67
2022/07/01 03:50:50;;;;;;;10.20;6.55;;;;;;;22.14;73.40;100500.45;1639006;87;21054;-69
2022/07/01 03:56:08;;;;;;;8.08;6.22;;;;;;;22.29;72.62;100514.47;1640377;87;21078;-69
2022/07/01 03:58:38;;;;;;;7.58;6.00;;;;;;;22.38;72.03;100518.42;1640679;87;21011;-69
2022/07/01 04:01:08;;;;;;;11.35;6.87;;;;;;;22.42;71.86;100516.75;1640488;87;21063;-69
2022/07/01 04:03:38;;;;;;;7.00;6.00;;;;;;;22.51;70.88;100518.46;1640366;86;21043;-69
2022/07/01 04:06:09;;;;;;;11.75;6.53;;;;;;;22.58;69.81;100507.03;1640539;87;21078;-68
2022/07/01 04:08:39;;;;;;;9.48;7.33;;;;;;;22.67;68.73;100516.00;1642639;87;21050;-69
2022/07/01 04:11:08;;;;;;;11.88;6.85;;;;;;;22.74;68.00;100515.18;1649658;87;21076;-69
2022/07/01 04:13:38;;;;;;;11.65;7.22;;;;;;;22.81;67.38;100513.58;1636031;87;21068;-68
2022/07/01 04:16:08;;;;;;;10.65;6.67;;;;;;;22.87;67.10;100525.61;1657285;86;21094;-69
2022/07/01 04:18:40;;;;;;;11.38;6.58;;;;;;;22.94;66.97;100526.19;1612635;89;21054;-70
2022/07/01 04:24:01;;;;;;;10.60;6.83;;;;;;;23.03;66.23;100518.94;1641988;87;21076;-69
2022/07/01 04:26:30;;;;;;;8.68;6.28;;;;;;;23.07;65.83;100519.50;1649719;87;21085;-68
2022/07/01 04:29:01;;;;;;;10.32;6.78;;;;;;;23.14;65.41;100523.41;1635146;87;21088;-68
2022/07/01 04:31:31;;;;;;;12.63;6.85;;;;;;;23.22;65.03;100519.23;1664502;86;21063;-69
2022/07/01 04:34:03;;;;;;;14.18;6.97;;;;;;;23.30;65.08;100521.47;1648144;87;21133;-68
2022/07/01 04:36:33;;;;;;;9.20;6.22;;;;;;;23.40;64.82;100520.07;1648298;87;21061;-68
2022/07/01 04:39:05;;;;;;;7.17;5.92;;;;;;;23.52;64.29;100524.02;1648112;87;21619;-69
2022/07/01 04:44:24;;;;;;;11.25;6.45;;;;;;;23.76;63.41;100518.70;1637028;88;21046;-68
2022/07/01 04:46:54;;;;;;;8.10;5.80;;;;;;;23.84;62.74;100516.73;1618978;88;21096;-69
2022/07/01 04:49:24;;;;;;;9.80;5.95;;;;;;;23.87;62.02;100513.37;1648081;87;21073;-69
2022/07/01 04:51:53;;;;;;;8.90;6.20;;;;;;;23.88;62.12;100515.88;1648114;87;21113;-70
2022/07/01 04:54:22;;;;;;;7.90;6.05;;;;;;;23.89;62.47;100517.56;1635954;87;21076;-68
2022/07/01 04:56:52;;;;;;;13.68;6.53;;;;;;;23.91;62.03;100519.52;1664400;86;21526;-69
2022/07/01 04:59:22;;;;;;;9.23;6.28;;;;;;;23.92;61.98;100517.55;1647315;87;21113;-68
2022/07/01 05:01:51;;;;;;;12.05;6.58;;;;;;;23.94;61.73;100521.74;1635359;87;21077;-70
2022/07/01 05:04:22;;;;;;;11.65;6.35;;;;;;;24.03;61.63;100518.64;1664057;86;21076;-68
2022/07/01 05:06:51;;;;;;;12.45;7.03;;;;;;;24.24;61.16;100515.81;1648324;87;21521;-70
2022/07/01 05:09:21;;;;;;;13.22;6.95;;;;;;;24.53;60.63;100515.99;1627935;86;21082;-69
2022/07/01 05:11:53;;;;;;;10.10;6.80;;;;;;;24.82;60.27;100516.15;1602956;89;21250;-69
2022/07/01 05:14:23;;;;;;;12.98;7.05;;;;;;;25.11;59.35;100520.47;1617035;89;21499;-69
2022/07/01 05:16:53;;;;;;;10.85;6.17;;;;;;;25.38;57.28;100522.25;1604537;89;21080;-69
2022/07/01 05:21:57;;;;;;;12.63;6.97;;;;;;;25.80;55.92;100516.00;1584966;89;21272;-69
2022/07/01 05:24:31;;;;;;;10.20;6.45;;;;;;;25.99;55.25;100516.08;1617130;89;21086;-70
2022/07/01 05:27:03;;;;;;;9.35;5.58;;;;;;;26.16;54.57;100519.85;1616902;89;21134;-68
2022/07/01 05:29:32;;;;;;;11.78;5.12;;;;;;;26.29;53.59;100514.08;1618324;88;21573;-70
2022/07/01 05:32:02;;;;;;;12.90;5.53;;;;;;;26.35;53.35;100518.53;1618481;88;21050;-69
2022/07/01 05:34:33;;;;;;;11.75;5.80;;;;;;;26.40;53.17;100519.31;1618170;89;21198;-69
2022/07/01 05:37:03;;;;;;;10.08;5.53;;;;;;;26.34;53.15;100523.88;1616886;89;21026;-68
2022/07/01 05:39:32;;;;;;;9.23;5.58;;;;;;;26.27;53.23;100524.78;1604133;89;21041;-71
2022/07/01 05:42:02;;;;;;;8.18;5.37;;;;;;;26.18;53.30;100527.41;1606854;88;21103;-70
2022/07/01 05:44:31;;;;;;;14.95;6.47;;;;;;;26.14;53.69;100520.72;1631515;88;21062;-69
2022/07/01 05:47:04;;;;;;;10.50;5.37;;;;;;;26.14;53.75;100521.56;1630825;88;21083;-68
2022/07/01 05:49:33;;;;;;;13.60;6.05;;;;;;;26.14;53.99;100521.56;1617246;89;21062;-72
2022/07/01 05:52:04;;;;;;;11.22;5.67;;;;;;;26.26;53.68;100525.92;1604337;89;21071;-69
2022/07/01 05:54:33;;;;;;;10.75;6.35;;;;;;;26.34;53.47;100516.86;1631774;88;21110;-69
2022/07/01 05:57:05;;;;;;;12.63;5.92;;;;;;;26.37;53.54;100515.69;1631656;88;21063;-72
2022/07/01 05:59:38;;;;;;;8.53;5.62;;;;;;;26.41;53.18;100517.33;1630056;88;21111;-70
2022/07/01 06:02:08;;;;;;;9.63;5.92;;;;;;;26.43;53.78;100517.87;1616908;89;21090;-69
2022/07/01 06:04:39;;;;;;;13.00;6.35;;;;;;;26.52;53.70;100514.66;1604405;89;21620;-69
2022/07/01 06:07:10;;;;;;;10.53;5.75;;;;;;;26.77;53.10;100512.94;1631824;88;21064;-70
2022/07/01 06:09:40;;;;;;;10.58;5.62;;;;;;;27.22;51.87;100513.98;1620065;88;21065;-70
2022/07/01 06:12:11;;;;;;;8.05;5.10;;;;;;;27.59;50.55;100511.69;1622241;88;21086;-73
2022/07/01 06:14:41;;;;;;;9.70;5.40;;;;;;;27.89;49.32;100513.15;1594190;87;21462;-70
2022/07/01 06:17:13;;;;;;;11.50;5.37;;;;;;;28.20;48.56;100507.20;1622217;88;21119;-71
2022/07/01 06:19:43;;;;;;;7.78;4.60;;;;;;;28.47;48.01;100509.78;1624525;87;21054;-71
2022/07/01 06:22:16;;;;;;;7.65;4.60;;;;;;;28.75;47.50;100510.03;1640327;87;21026;-70
2022/07/01 06:24:46;;;;;;;8.15;4.65;;;;;;;29.16;46.12;100507.13;1639847;86;21055;-70
2022/07/01 06:27:15;;;;;;;6.70;5.03;;;;;;;29.16;46.12;100507.13;1640472;86;21490;-71
2022/07/01 06:29:45;;;;;;;6.35;4.80;;;;;;;29.17;45.49;100500.90;1637385;87;21077;-71
2022/07/01 06:32:15;;;;;;;7.78;5.00;;;;;;;29.11;45.53;100501.60;1620888;88;21178;-71
2022/07/01 06:34:44;;;;;;;8.05;5.20;;;;;;;29.04;45.96;100501.20;1620883;88;21105;-70
2022/07/01 06:37:13;;;;;;;8.25;4.92;;;;;;;29.00;44.96;100490.30;1620789;88;21101;-72
2022/07/01 06:39:44;;;;;;;5.95;4.67;;;;;;;29.10;45.04;100497.11;1620878;88;21070;-69
2022/07/01 06:42:15;;;;;;;7.25;4.80;;;;;;;29.18;44.26;100489.87;1623084;87;21133;-69
2022/07/01 06:44:46;;;;;;;7.42;4.67;;;;;;;29.16;44.45;100489.36;1640164;87;21046;-72
2022/07/01 06:47:15;;;;;;;9.18;4.92;;;;;;;29.25;44.07;100486.86;1639595;86;21067;-71
2022/07/01 06:49:46;;;;;;;7.25;4.55;;;;;;;29.48;43.54;100484.92;1640165;86;21083;-71
2022/07/01 06:52:18;;;;;;;7.37;4.95;;;;;;;29.76;43.05;100485.59;1639983;87;21482;-71
2022/07/01 06:54:49;;;;;;;11.05;5.25;;;;;;;30.07;41.86;100476.31;1624041;88;21081;-70
2022/07/01 06:57:19;;;;;;;12.55;5.60;;;;;;;30.39;41.61;100492.89;1685394;85;21062;-70
2022/07/01 06:59:49;;;;;;;8.13;5.22;;;;;;;30.71;41.22;100484.62;1681695;85;21046;-71
2022/07/01 07:02:20;;;;;;;8.38;6.33;;;;;;;30.96;40.46;100482.98;1667328;85;21483;-69
2022/07/01 07:04:57;;;;;;;8.98;4.85;;;;;;;30.97;40.16;100481.81;1667008;86;21118;-69
2022/07/01 07:07:27;;;;;;;8.63;4.90;;;;;;;30.92;40.33;100479.14;1666619;86;21035;-69
2022/07/01 07:09:56;;;;;;;9.98;4.75;;;;;;;30.76;40.25;100485.04;1667036;86;21085;-71
2022/07/01 07:12:27;;;;;;;7.97;5.00;;;;;;;30.54;40.84;100474.63;1682176;85;21078;-69
2022/07/01 07:14:57;;;;;;;5.53;4.33;;;;;;;30.36;41.17;100479.98;1641367;87;21033;-71
2022/07/01 07:17:28;;;;;;;5.05;4.28;;;;;;;30.45;39.64;100483.67;1649616;86;21010;-70
2022/07/01 07:19:57;;;;;;;5.90;4.60;;;;;;;30.63;39.25;100484.61;1671868;85;21059;-71
2022/07/01 07:22:26;;;;;;;4.90;4.40;;;;;;;30.78;39.28;100486.38;1692844;85;21007;-71
2022/07/01 07:24:57;;;;;;;10.90;4.60;;;;;;;30.71;38.85;100488.86;1692745;85;21051;-69
2022/07/01 07:27:28;;;;;;;21.12;6.40;;;;;;;30.45;39.70;100485.92;1692609;85;21042;-71
2022/07/01 07:30:03;;;;;;;8.33;4.87;;;;;;;30.34;40.14;100488.80;1689787;85;21062;-71
2022/07/01 07:32:33;;;;;;;5.45;4.95;;;;;;;30.56;40.05;100473.16;1690800;84;21063;-69
2022/07/01 07:35:03;;;;;;;7.25;5.50;;;;;;;30.84;39.54;100482.80;1667018;85;21486;-71
2022/07/01 07:37:32;;;;;;;5.67;4.72;;;;;;;31.03;39.41;100481.89;1666942;86;21130;-72
2022/07/01 07:40:06;;;;;;;6.42;4.67;;;;;;;31.13;39.14;100481.56;1667568;85;21039;-73
2022/07/01 07:42:37;;;;;;;6.62;4.90;;;;;;;31.00;39.41;100478.31;1667126;86;21063;-71
2022/07/01 07:45:07;;;;;;;8.30;5.12;;;;;;;30.87;39.86;100476.48;1667140;86;21043;-68
2022/07/01 07:47:37;;;;;;;5.45;4.45;;;;;;;30.97;40.03;100480.39;1666908;86;21586;-69
2022/07/01 07:50:08;;;;;;;6.65;4.97;;;;;;;31.29;39.71;100468.38;1673813;85;21439;-69
2022/07/01 07:52:38;;;;;;;10.60;4.72;;;;;;;31.59;39.44;100474.39;1667326;85;21439;-69
2022/07/01 07:55:08;;;;;;;8.45;5.20;;;;;;;31.85;38.48;100467.27;1674298;84;21079;-70
2022/07/01 07:57:39;;;;;;;9.80;5.17;;;;;;;31.78;38.64;100461.29;1686513;84;21063;-68
2022/07/01 08:00:11;;;;;;;6.85;5.28;;;;;;;31.72;38.71;100469.73;1667540;84;21011;-69
2022/07/01 08:02:41;;;;;;;5.33;4.58;;;;;;;31.65;39.05;100464.55;1664401;86;21110;-69
2022/07/01 08:05:10;;;;;;;5.40;4.90;;;;;;;31.54;39.88;100460.41;1681250;85;21010;-69
2022/07/01 08:07:41;;;;;;;8.08;4.85;;;;;;;31.64;39.84;100465.72;1690189;84;21070;-69
2022/07/01 08:10:12;;;;;;;6.65;4.97;;;;;;;31.76;39.51;100463.63;1692363;84;21078;-65
2022/07/01 08:12:41;;;;;;;5.45;4.92;;;;;;;31.90;39.46;100464.86;1674117;85;21042;-66
2022/07/01 08:15:10;;;;;;;8.55;5.20;;;;;;;32.01;38.65;100466.98;1685349;84;21062;-65
2022/07/01 08:17:40;;;;;;;7.87;4.75;;;;;;;32.05;38.78;100467.97;1692504;84;21466;-66
2022/07/01 08:20:11;;;;;;;7.65;4.95;;;;;;;32.16;37.68;100469.83;1692714;85;21106;-65
2022/07/01 08:22:40;;;;;;;5.95;4.55;;;;;;;32.01;37.12;100474.66;1675155;84;21468;-66
2022/07/01 08:25:09;;;;;;;9.75;4.50;;;;;;;31.85;37.28;100469.52;1692533;85;21066;-65
2022/07/01 08:27:40;;;;;;;7.53;4.33;;;;;;;31.84;37.13;100469.27;1692731;84;21059;-65
2022/07/01 08:33:02;;;;;;;5.83;3.83;;;;;;;32.06;35.25;100473.88;1668353;85;21034;-65
2022/07/01 08:35:32;;;;;;;5.78;4.58;;;;;;;32.17;35.55;100472.91;1668314;86;21018;-66
2022/07/01 08:38:02;;;;;;;7.40;5.00;;;;;;;32.34;35.93;100470.60;1667940;86;21050;-65
2022/07/01 08:40:33;;;;;;;8.63;4.30;;;;;;;32.52;35.26;100474.20;1667856;86;21085;-67
2022/07/01 08:43:04;;;;;;;6.00;4.70;;;;;;;32.67;34.63;100468.75;1671316;86;21038;-66
2022/07/01 08:45:37;;;;;;;9.55;4.03;;;;;;;32.71;34.40;100461.80;1672212;86;21045;-66
2022/07/01 08:48:08;;;;;;;6.85;3.85;;;;;;;32.96;33.45;100454.28;1671795;86;21058;-66
2022/07/01 08:50:39;;;;;;;8.53;4.55;;;;;;;33.08;33.00;100455.17;1640457;87;21102;-65
2022/07/01 08:53:09;;;;;;;6.58;3.90;;;;;;;33.20;31.90;100460.11;1644451;87;21049;-66
2022/07/01 08:58:30;;;;;;;6.03;3.70;;;;;;;33.20;32.14;100452.18;1659203;86;21101;-65
2022/07/01 09:01:17;;;;;;;8.10;4.37;;;;;;;33.21;31.68;100454.67;1632435;87;21018;-65
2022/07/01 09:03:47;;;;;;;4.78;3.95;;;;;;;33.18;32.40;100458.80;1631764;88;21158;-66
2022/07/01 09:06:19;;;;;;;7.92;4.40;;;;;;;33.19;32.37;100454.78;1634103;88;21076;-69
2022/07/01 09:08:49;;;;;;;7.45;4.55;;;;;;;33.22;32.48;100459.76;1634186;88;21449;-66
2022/07/01 09:11:21;;;;;;;7.58;4.45;;;;;;;33.13;33.71;100464.07;1640791;87;21139;-66
2022/07/01 09:14:12;;;;;;;8.28;4.45;;;;;;;33.04;34.02;100461.89;1644062;87;21128;-67
2022/07/01 09:16:45;;;;;;;4.65;4.15;;;;;;;32.97;34.08;100456.78;1644022;87;21049;-66
2022/07/01 09:19:16;;;;;;;6.97;4.10;;;;;;;32.92;33.31;100447.05;1647524;86;21486;-65
2022/07/01 09:21:58;;;;;;;6.87;4.53;;;;;;;32.82;33.13;100448.89;1644396;87;21533;-67
2022/07/01 09:24:42;;;;;;;7.85;4.70;;;;;;;32.63;33.55;100448.50;1616543;89;21059;-66
2022/07/01 09:27:16;;;;;;;5.70;4.12;;;;;;;32.43;34.26;100453.77;1618220;88;21085;-65
2022/07/01 09:29:49;;;;;;;6.50;4.30;;;;;;;32.25;34.56;100455.05;1644421;87;21129;-66
2022/07/01 09:32:20;;;;;;;7.50;4.05;;;;;;;32.16;34.43;100446.56;1616855;89;21074;-68
2022/07/01 09:34:51;;;;;;;5.25;4.20;;;;;;;32.04;34.84;100443.62;1616610;89;21491;-68
2022/07/01 09:37:24;;;;;;;5.62;4.08;;;;;;;31.93;34.75;100450.01;1617329;88;21130;-65
2022/07/01 09:39:58;;;;;;;5.33;4.20;;;;;;;31.79;33.55;100433.20;1616774;89;21054;-66
2022/07/01 09:42:28;;;;;;;8.28;4.05;;;;;;;31.64;33.95;100450.72;1644344;86;21074;-66
2022/07/01 09:45:11;;;;;;;4.62;4.20;;;;;;;31.54;34.21;100453.33;1616769;89;21531;-67
2022/07/01 09:47:42;;;;;;;4.97;4.47;;;;;;;31.45;34.33;100444.85;1616964;89;21070;-68
2022/07/01 09:50:13;;;;;;;6.05;4.15;;;;;;;31.34;35.03;100449.79;1644829;86;21482;-70
2022/07/01 09:52:44;;;;;;;6.08;3.98;;;;;;;31.22;35.34;100443.39;1616992;89;21109;-69
2022/07/01 09:55:13;;;;;;;3.25;2.98;;;;;;;31.20;33.62;100441.45;1616709;89;21090;-69
2022/07/01 09:57:45;;;;;;;5.47;3.22;;;;;;;31.16;31.70;100438.45;1539914;91;21134;-69
2022/07/01 10:00:16;;;;;;;3.60;3.30;;;;;;;31.14;31.15;100442.76;1559005;92;21125;-66
2022/07/01 10:02:45;;;;;;;5.28;3.25;;;;;;;31.16;30.74;100441.29;1558046;92;21256;-67
2022/07/01 10:05:19;;;;;;;5.33;3.10;;;;;;;31.14;30.70;100434.27;1556141;92;21178;-67
2022/07/01 10:08:26;;;;;;;6.20;3.45;;;;;;;31.12;31.32;100443.09;1556054;92;21200;-67
2022/07/01 10:11:18;;;;;;;4.70;3.47;;;;;;;31.11;33.35;100449.92;1550433;92;21518;-66
2022/07/01 10:13:48;;;;;;;3.62;3.33;;;;;;;30.99;33.53;100435.61;1543534;93;21119;-68
2022/07/01 10:16:20;;;;;;;4.37;2.50;;;;;;;30.73;33.35;100427.70;1587290;88;21115;-67
2022/07/01 10:18:52;;;;;;;5.15;3.02;;;;;;;30.67;31.72;100433.28;1670615;84;21105;-67
2022/07/01 10:21:29;;;;;;;6.47;3.50;;;;;;;30.68;31.64;100440.02;1664368;85;21046;-69
2022/07/01 10:24:18;;;;;;;4.58;3.17;;;;;;;30.71;34.33;100433.70;1692604;84;21089;-68
2022/07/01 10:26:46;;;;;;;5.10;3.55;;;;;;;30.65;35.44;100430.78;1692371;85;21042;-68
2022/07/01 10:29:33;;;;;;;7.00;4.30;;;;;;;30.46;36.28;100424.54;1678821;84;21097;-66
2022/07/01 10:32:12;;;;;;;5.70;3.90;;;;;;;30.30;36.87;100428.42;1668362;85;21077;-69
2022/07/01 10:34:44;;;;;;;4.78;3.15;;;;;;;30.20;37.52;100425.90;1613960;88;21508;-67
2022/07/01 10:37:13;;;;;;;3.30;2.55;;;;;;;30.24;37.51;100427.74;1634079;87;21044;-68
2022/07/01 10:39:59;;;;;;;4.28;2.70;;;;;;;30.27;35.87;100419.19;1612705;88;21519;-67
2022/07/01 10:42:36;;;;;;;3.50;2.70;;;;;;;30.27;35.74;100424.84;1633384;86;21131;-68
2022/07/01 10:45:10;;;;;;;5.28;2.52;;;;;;;30.26;35.48;100421.17;1625329;88;21255;-67
2022/07/01 10:47:41;;;;;;;5.70;2.60;;;;;;;30.17;34.17;100403.36;1625426;88;21095;-69
2022/07/01 10:50:16;;;;;;;4.15;2.10;;;;;;;30.20;34.20;100407.53;1625300;87;21106;-67
2022/07/01 10:53:01;;;;;;;5.55;2.60;;;;;;;30.22;32.85;100400.38;1649237;86;21082;-68
2022/07/01 10:55:48;;;;;;;4.35;3.08;;;;;;;30.19;33.10;100397.38;1668496;86;21061;-69
2022/07/01 10:58:20;;;;;;;5.62;3.50;;;;;;;30.19;33.10;100397.38;1667345;85;21089;-68
2022/07/01 11:00:52;;;;;;;4.83;2.92;;;;;;;30.08;35.65;100414.39;1668163;86;21555;-69
2022/07/01 11:03:23;;;;;;;3.40;2.65;;;;;;;30.08;35.65;100414.39;1677403;85;21479;-67
2022/07/01 11:05:55;;;;;;;6.00;2.70;;;;;;;30.06;36.55;100409.06;1685143;85;21483;-69
2022/07/01 11:08:25;;;;;;;7.00;2.75;;;;;;;29.98;36.72;100406.44;1685090;85;21110;-68
2022/07/01 11:10:58;;;;;;;5.00;2.52;;;;;;;29.93;36.13;100411.41;1687905;85;21471;-67
2022/07/01 11:13:28;;;;;;;4.30;2.60;;;;;;;29.85;34.94;100408.77;1692511;85;21034;-69
2022/07/01 11:15:57;;;;;;;5.65;2.42;;;;;;;29.75;34.75;100412.47;1692425;85;21075;-67
2022/07/01 11:18:27;;;;;;;4.22;2.30;;;;;;;29.76;34.04;100405.08;1692428;85;21786;-67
2022/07/01 11:21:07;;;;;;;5.60;2.58;;;;;;;29.81;34.37;100402.69;1689713;84;21114;-67
2022/07/01 11:23:36;;;;;;;2.70;2.40;;;;;;;29.83;34.85;100400.37;1692494;85;21078;-65
2022/07/01 11:26:23;;;;;;;3.15;2.30;;;;;;;29.76;32.98;100390.95;1689370;85;21074;-67
2022/07/01 11:28:54;;;;;;;3.62;2.40;;;;;;;29.69;33.57;100400.48;1655565;85;21054;-67
2022/07/01 11:31:30;;;;;;;2.85;2.55;;;;;;;29.69;33.57;100400.48;1670084;85;21109;-68
2022/07/01 11:34:00;;;;;;;;;;;;;;;29.77;33.79;100388.97;1679395;84;21058;-68
2022/07/01 11:39:22;;;;;;;4.92;2.40;;;;;;;29.64;33.00;100387.91;1676816;85;21066;-65
2022/07/01 11:42:01;;;;;;;3.80;2.72;;;;;;;29.62;33.55;100389.66;1678727;85;21066;-68
2022/07/01 11:44:42;;;;;;;4.53;2.90;;;;;;;29.71;33.58;100387.45;1674021;85;21106;-67
2022/07/01 11:47:15;;;;;;;5.90;3.05;;;;;;;29.72;33.92;100389.11;1675754;85;21011;-66
2022/07/01 11:49:46;;;;;;;5.47;3.05;;;;;;;29.72;33.92;100389.11;1674361;85;21546;-69
2022/07/01 11:52:15;;;;;;;3.67;3.15;;;;;;;29.75;33.72;100389.87;1677339;84;21077;-68
2022/07/01 11:54:46;;;;;;;3.62;3.08;;;;;;;29.74;33.70;100386.79;1690662;84;21062;-67
2022/07/01 11:57:21;;;;;;;4.60;2.67;;;;;;;29.71;33.87;100382.63;1669249;85;21042;-69
2022/07/01 11:59:54;;;;;;;6.25;2.77;;;;;;;29.72;33.34;100392.77;1673042;85;20999;-67
2022/07/01 12:02:25;;;;;;;5.67;2.65;;;;;;;29.70;33.63;100384.36;1668605;85;21138;-68